sensor_id;sensor_type;location;lat;lon;timestamp;pressure;altitude;pressure_sealevel;temperature;humidity
76762;BME280;65705;51.032;13.790;2023-02-14T00:02:01;102479.38;;;7.04;75.02
76762;BME280;65705;51.032;13.790;2023-02-14T00:04:26;102479.44;;;7.03;74.95
76762;BME280;65705;51.032;13.790;2023-02-14T00:06:52;102470.69;;;7.04;74.94
76762;BME280;65705;51.032;13.790;2023-02-14T00:09:18;102467.50;;;6.99;75.18
76762;BME280;65705;51.032;13.790;2023-02-14T00:11:44;102470.22;;;6.96;75.16
76762;BME280;65705;51.032;13.790;2023-02-14T00:14:11;102464.78;;;6.83;75.71
76762;BME280;65705;51.032;13.790;2023-02-14T00:16:56;102471.84;;;6.81;75.61
76762;BME280;65705;51.032;13.790;2023-02-14T00:19:22;102475.56;;;6.77;75.78
76762;BME280;65705;51.032;13.790;2023-02-14T00:21:48;102471.09;;;6.79;75.88
76762;BME280;65705;51.032;13.790;2023-02-14T00:24:16;102469.94;;;6.85;75.74
76762;BME280;65705;51.032;13.790;2023-02-14T00:26:42;102470.78;;;6.85;75.62
76762;BME280;65705;51.032;13.790;2023-02-14T00:29:11;102460.25;;;6.87;75.65
76762;BME280;65705;51.032;13.790;2023-02-14T00:31:37;102467.25;;;6.86;75.38
76762;BME280;65705;51.032;13.790;2023-02-14T00:34:04;102461.09;;;6.87;75.32
76762;BME280;65705;51.032;13.790;2023-02-14T00:36:30;102470.41;;;6.93;75.30
76762;BME280;65705;51.032;13.790;2023-02-14T00:38:55;102470.47;;;6.91;75.26
76762;BME280;65705;51.032;13.790;2023-02-14T00:41:21;102474.75;;;6.92;75.20
76762;BME280;65705;51.032;13.790;2023-02-14T00:43:51;102475.88;;;6.88;75.28
76762;BME280;65705;51.032;13.790;2023-02-14T00:46:18;102469.72;;;6.89;75.23
76762;BME280;65705;51.032;13.790;2023-02-14T00:48:43;102460.03;;;6.91;75.13
76762;BME280;65705;51.032;13.790;2023-02-14T00:51:09;102452.44;;;6.87;75.40
76762;BME280;65705;51.032;13.790;2023-02-14T00:53:35;102456.06;;;6.84;75.71
76762;BME280;65705;51.032;13.790;2023-02-14T00:56:01;102460.59;;;6.81;75.95
76762;BME280;65705;51.032;13.790;2023-02-14T00:58:27;102452.19;;;6.74;76.00
76762;BME280;65705;51.032;13.790;2023-02-14T01:00:53;102453.34;;;6.69;76.22
76762;BME280;65705;51.032;13.790;2023-02-14T01:03:19;102452.16;;;6.76;76.27
76762;BME280;65705;51.032;13.790;2023-02-14T01:05:48;102449.47;;;6.77;76.00
76762;BME280;65705;51.032;13.790;2023-02-14T01:08:14;102452.88;;;6.78;75.88
76762;BME280;65705;51.032;13.790;2023-02-14T01:10:40;102448.44;;;6.80;75.83
76762;BME280;65705;51.032;13.790;2023-02-14T01:13:06;102454.22;;;6.86;75.74
76762;BME280;65705;51.032;13.790;2023-02-14T01:15:33;102455.13;;;6.85;75.76
76762;BME280;65705;51.032;13.790;2023-02-14T01:18:03;102452.69;;;6.82;75.79
76762;BME280;65705;51.032;13.790;2023-02-14T01:20:28;102448.31;;;6.83;75.72
76762;BME280;65705;51.032;13.790;2023-02-14T01:22:54;102440.22;;;6.87;75.46
76762;BME280;65705;51.032;13.790;2023-02-14T01:25:20;102441.22;;;6.85;75.56
76762;BME280;65705;51.032;13.790;2023-02-14T01:27:45;102439.38;;;6.87;75.44
76762;BME280;65705;51.032;13.790;2023-02-14T01:30:12;102449.47;;;6.77;75.81
76762;BME280;65705;51.032;13.790;2023-02-14T01:32:39;102441.00;;;6.72;75.89
76762;BME280;65705;51.032;13.790;2023-02-14T01:35:07;102438.38;;;6.72;75.98
76762;BME280;65705;51.032;13.790;2023-02-14T01:37:33;102437.41;;;6.75;75.93
76762;BME280;65705;51.032;13.790;2023-02-14T01:39:59;102427.81;;;6.75;75.93
76762;BME280;65705;51.032;13.790;2023-02-14T01:42:26;102427.66;;;6.78;75.86
76762;BME280;65705;51.032;13.790;2023-02-14T01:47:22;102431.31;;;6.74;75.82
76762;BME280;65705;51.032;13.790;2023-02-14T01:49:54;102431.50;;;6.71;75.94
76762;BME280;65705;51.032;13.790;2023-02-14T01:54:59;102433.00;;;6.58;76.40
76762;BME280;65705;51.032;13.790;2023-02-14T01:57:43;102430.16;;;6.46;76.87
76762;BME280;65705;51.032;13.790;2023-02-14T02:00:10;102434.47;;;6.47;77.18
76762;BME280;65705;51.032;13.790;2023-02-14T02:02:57;102436.25;;;6.46;77.15
76762;BME280;65705;51.032;13.790;2023-02-14T02:05:23;102433.56;;;6.48;77.15
76762;BME280;65705;51.032;13.790;2023-02-14T02:07:51;102435.94;;;6.52;76.89
76762;BME280;65705;51.032;13.790;2023-02-14T02:10:17;102435.78;;;6.55;76.91
76762;BME280;65705;51.032;13.790;2023-02-14T02:12:43;102424.28;;;6.59;76.58
76762;BME280;65705;51.032;13.790;2023-02-14T02:15:09;102426.97;;;6.58;76.61
76762;BME280;65705;51.032;13.790;2023-02-14T02:18:06;102426.91;;;6.59;76.73
76762;BME280;65705;51.032;13.790;2023-02-14T02:26:22;102426.03;;;6.59;76.48
76762;BME280;65705;51.032;13.790;2023-02-14T02:29:14;102429.50;;;6.59;76.35
76762;BME280;65705;51.032;13.790;2023-02-14T02:52:10;102408.47;;;6.62;76.54
76762;BME280;65705;51.032;13.790;2023-02-14T02:55:05;102411.84;;;6.64;76.43
76762;BME280;65705;51.032;13.790;2023-02-14T02:57:36;102404.78;;;6.66;76.15
76762;BME280;65705;51.032;13.790;2023-02-14T03:00:06;102399.75;;;6.63;76.42
76762;BME280;65705;51.032;13.790;2023-02-14T03:02:38;102404.28;;;6.60;76.50
76762;BME280;65705;51.032;13.790;2023-02-14T03:05:29;102392.97;;;6.59;76.54
76762;BME280;65705;51.032;13.790;2023-02-14T03:07:55;102396.28;;;6.63;76.23
76762;BME280;65705;51.032;13.790;2023-02-14T03:10:25;102399.09;;;6.58;76.57
76762;BME280;65705;51.032;13.790;2023-02-14T03:27:02;102410.69;;;6.35;77.55
76762;BME280;65705;51.032;13.790;2023-02-14T03:37:11;102406.25;;;6.37;76.76
76762;BME280;65705;51.032;13.790;2023-02-14T03:39:44;102405.31;;;6.38;76.66
76762;BME280;65705;51.032;13.790;2023-02-14T03:42:24;102400.47;;;6.31;76.95
76762;BME280;65705;51.032;13.790;2023-02-14T03:44:53;102402.00;;;6.35;76.77
76762;BME280;65705;51.032;13.790;2023-02-14T03:47:23;102395.72;;;6.39;76.65
76762;BME280;65705;51.032;13.790;2023-02-14T03:50:05;102395.81;;;6.37;76.92
76762;BME280;65705;51.032;13.790;2023-02-14T03:52:33;102399.31;;;6.36;77.20
76762;BME280;65705;51.032;13.790;2023-02-14T03:55:01;102402.78;;;6.37;77.02
76762;BME280;65705;51.032;13.790;2023-02-14T03:57:35;102401.94;;;6.36;77.25
76762;BME280;65705;51.032;13.790;2023-02-14T04:00:02;102404.34;;;6.41;76.73
76762;BME280;65705;51.032;13.790;2023-02-14T04:02:41;102403.47;;;6.40;76.97
76762;BME280;65705;51.032;13.790;2023-02-14T04:05:12;102399.31;;;6.36;76.77
76762;BME280;65705;51.032;13.790;2023-02-14T04:07:48;102403.81;;;6.34;76.76
76762;BME280;65705;51.032;13.790;2023-02-14T04:10:15;102406.63;;;6.30;77.14
76762;BME280;65705;51.032;13.790;2023-02-14T04:12:41;102410.28;;;6.26;77.22
76762;BME280;65705;51.032;13.790;2023-02-14T04:15:08;102415.22;;;6.32;76.78
76762;BME280;65705;51.032;13.790;2023-02-14T04:17:33;102411.63;;;6.34;76.66
76762;BME280;65705;51.032;13.790;2023-02-14T04:20:18;102411.13;;;6.26;77.02
76762;BME280;65705;51.032;13.790;2023-02-14T04:22:44;102398.97;;;6.27;77.19
76762;BME280;65705;51.032;13.790;2023-02-14T04:25:11;102392.13;;;6.24;77.33
76762;BME280;65705;51.032;13.790;2023-02-14T04:27:37;102394.66;;;6.26;77.35
76762;BME280;65705;51.032;13.790;2023-02-14T04:30:03;102400.94;;;6.22;77.36
76762;BME280;65705;51.032;13.790;2023-02-14T04:32:29;102394.97;;;6.20;77.30
76762;BME280;65705;51.032;13.790;2023-02-14T04:34:55;102392.13;;;6.24;77.15
76762;BME280;65705;51.032;13.790;2023-02-14T04:37:20;102396.19;;;6.30;76.76
76762;BME280;65705;51.032;13.790;2023-02-14T04:39:46;102383.16;;;6.30;76.83
76762;BME280;65705;51.032;13.790;2023-02-14T04:42:12;102390.75;;;6.34;76.82
76762;BME280;65705;51.032;13.790;2023-02-14T04:44:38;102390.00;;;6.32;76.73
76762;BME280;65705;51.032;13.790;2023-02-14T04:47:05;102385.69;;;6.31;76.72
76762;BME280;65705;51.032;13.790;2023-02-14T04:49:31;102389.59;;;6.40;76.71
76762;BME280;65705;51.032;13.790;2023-02-14T04:51:57;102383.69;;;6.36;76.59
76762;BME280;65705;51.032;13.790;2023-02-14T04:54:22;102380.53;;;6.30;76.72
76762;BME280;65705;51.032;13.790;2023-02-14T04:56:48;102377.25;;;6.26;76.87
76762;BME280;65705;51.032;13.790;2023-02-14T04:59:14;102380.69;;;6.27;76.93
76762;BME280;65705;51.032;13.790;2023-02-14T05:01:40;102371.19;;;6.26;76.69
76762;BME280;65705;51.032;13.790;2023-02-14T05:04:06;102374.41;;;6.31;76.58
76762;BME280;65705;51.032;13.790;2023-02-14T05:06:32;102370.97;;;6.30;76.66
76762;BME280;65705;51.032;13.790;2023-02-14T05:08:59;102377.72;;;6.34;76.35
76762;BME280;65705;51.032;13.790;2023-02-14T05:11:26;102381.91;;;6.37;76.22
76762;BME280;65705;51.032;13.790;2023-02-14T05:13:51;102374.88;;;6.39;76.13
76762;BME280;65705;51.032;13.790;2023-02-14T05:16:17;102375.03;;;6.36;76.38
76762;BME280;65705;51.032;13.790;2023-02-14T05:18:43;102373.03;;;6.41;75.41
76762;BME280;65705;51.032;13.790;2023-02-14T05:21:09;102374.72;;;6.42;75.20
76762;BME280;65705;51.032;13.790;2023-02-14T05:23:35;102373.94;;;6.40;75.44
76762;BME280;65705;51.032;13.790;2023-02-14T05:26:01;102377.41;;;6.40;75.53
76762;BME280;65705;51.032;13.790;2023-02-14T05:28:27;102368.81;;;6.38;75.32
76762;BME280;65705;51.032;13.790;2023-02-14T05:30:52;102365.28;;;6.39;75.21
76762;BME280;65705;51.032;13.790;2023-02-14T05:33:18;102365.38;;;6.38;74.41
76762;BME280;65705;51.032;13.790;2023-02-14T05:35:44;102370.44;;;6.41;74.25
76762;BME280;65705;51.032;13.790;2023-02-14T05:38:10;102368.72;;;6.40;74.66
76762;BME280;65705;51.032;13.790;2023-02-14T05:40:37;102372.09;;;6.42;74.85
76762;BME280;65705;51.032;13.790;2023-02-14T05:43:03;102366.97;;;6.40;74.43
76762;BME280;65705;51.032;13.790;2023-02-14T05:45:29;102370.59;;;6.38;74.82
76762;BME280;65705;51.032;13.790;2023-02-14T05:47:54;102363.59;;;6.38;74.80
76762;BME280;65705;51.032;13.790;2023-02-14T05:50:20;102363.06;;;6.32;75.18
76762;BME280;65705;51.032;13.790;2023-02-14T05:52:46;102360.63;;;6.29;75.56
76762;BME280;65705;51.032;13.790;2023-02-14T05:55:12;102370.28;;;6.27;75.81
76762;BME280;65705;51.032;13.790;2023-02-14T05:57:37;102365.97;;;6.26;75.68
76762;BME280;65705;51.032;13.790;2023-02-14T06:00:04;102359.84;;;6.27;75.45
76762;BME280;65705;51.032;13.790;2023-02-14T06:02:38;102363.59;;;6.38;73.51
76762;BME280;65705;51.032;13.790;2023-02-14T06:05:04;102363.75;;;6.35;74.30
76762;BME280;65705;51.032;13.790;2023-02-14T06:07:30;102365.50;;;6.35;74.45
76762;BME280;65705;51.032;13.790;2023-02-14T06:09:56;102367.28;;;6.34;74.96
76762;BME280;65705;51.032;13.790;2023-02-14T06:12:21;102371.50;;;6.37;75.27
76762;BME280;65705;51.032;13.790;2023-02-14T06:14:47;102368.72;;;6.40;75.48
76762;BME280;65705;51.032;13.790;2023-02-14T06:17:13;102371.41;;;6.38;75.11
76762;BME280;65705;51.032;13.790;2023-02-14T06:19:39;102365.28;;;6.39;74.76
76762;BME280;65705;51.032;13.790;2023-02-14T06:22:04;102368.66;;;6.59;71.55
76762;BME280;65705;51.032;13.790;2023-02-14T06:24:30;102365.28;;;6.57;70.28
76762;BME280;65705;51.032;13.790;2023-02-14T06:26:57;102363.69;;;6.54;71.71
76762;BME280;65705;51.032;13.790;2023-02-14T06:29:23;102360.31;;;6.52;72.09
76762;BME280;65705;51.032;13.790;2023-02-14T06:31:49;102368.81;;;6.56;72.28
76762;BME280;65705;51.032;13.790;2023-02-14T06:34:15;102375.34;;;6.47;71.37
76762;BME280;65705;51.032;13.790;2023-02-14T06:36:40;102372.66;;;6.49;71.29
76762;BME280;65705;51.032;13.790;2023-02-14T06:39:06;102379.38;;;6.53;71.06
76762;BME280;65705;51.032;13.790;2023-02-14T06:41:32;102379.00;;;6.60;70.06
76762;BME280;65705;51.032;13.790;2023-02-14T06:43:57;102384.13;;;6.62;69.26
76762;BME280;65705;51.032;13.790;2023-02-14T06:46:23;102385.13;;;6.76;68.19
76762;BME280;65705;51.032;13.790;2023-02-14T06:48:49;102393.13;;;6.73;69.05
76762;BME280;65705;51.032;13.790;2023-02-14T06:51:14;102383.59;;;6.72;69.45
76762;BME280;65705;51.032;13.790;2023-02-14T06:53:40;102387.28;;;6.68;69.72
76762;BME280;65705;51.032;13.790;2023-02-14T06:56:06;102382.00;;;6.70;70.14
76762;BME280;65705;51.032;13.790;2023-02-14T06:58:32;102391.56;;;6.69;69.21
76762;BME280;65705;51.032;13.790;2023-02-14T07:00:58;102385.59;;;6.67;69.40
76762;BME280;65705;51.032;13.790;2023-02-14T07:03:25;102389.75;;;6.71;69.40
76762;BME280;65705;51.032;13.790;2023-02-14T07:05:51;102387.97;;;6.72;69.59
76762;BME280;65705;51.032;13.790;2023-02-14T07:08:18;102382.59;;;6.75;69.67
76762;BME280;65705;51.032;13.790;2023-02-14T07:10:45;102380.75;;;6.77;69.62
76762;BME280;65705;51.032;13.790;2023-02-14T07:13:11;102373.59;;;6.80;69.38
76762;BME280;65705;51.032;13.790;2023-02-14T07:15:37;102372.75;;;6.80;69.18
76762;BME280;65705;51.032;13.790;2023-02-14T07:18:03;102377.75;;;6.84;69.34
76762;BME280;65705;51.032;13.790;2023-02-14T07:20:28;102378.53;;;6.86;68.64
76762;BME280;65705;51.032;13.790;2023-02-14T07:22:54;102380.28;;;6.86;68.74
76762;BME280;65705;51.032;13.790;2023-02-14T07:25:20;102375.97;;;6.85;68.93
76762;BME280;65705;51.032;13.790;2023-02-14T07:27:47;102382.63;;;6.90;68.75
76762;BME280;65705;51.032;13.790;2023-02-14T07:30:13;102375.66;;;6.91;68.86
76762;BME280;65705;51.032;13.790;2023-02-14T07:32:39;102382.34;;;6.96;68.20
76762;BME280;65705;51.032;13.790;2023-02-14T07:35:06;102385.72;;;6.98;68.06
76762;BME280;65705;51.032;13.790;2023-02-14T07:37:32;102384.78;;;6.99;68.09
76762;BME280;65705;51.032;13.790;2023-02-14T07:39:58;102378.72;;;6.99;67.97
76762;BME280;65705;51.032;13.790;2023-02-14T07:42:24;102382.16;;;6.99;68.36
76762;BME280;65705;51.032;13.790;2023-02-14T07:44:50;102379.63;;;6.98;67.92
76762;BME280;65705;51.032;13.790;2023-02-14T07:47:15;102369.28;;;6.96;68.52
76762;BME280;65705;51.032;13.790;2023-02-14T07:49:41;102369.88;;;7.01;68.43
76762;BME280;65705;51.032;13.790;2023-02-14T07:52:07;102364.66;;;7.01;67.85
76762;BME280;65705;51.032;13.790;2023-02-14T07:54:33;102372.34;;;7.04;67.94
76762;BME280;65705;51.032;13.790;2023-02-14T07:56:59;102375.69;;;7.06;67.89
76762;BME280;65705;51.032;13.790;2023-02-14T07:59:25;102376.53;;;7.07;67.41
76762;BME280;65705;51.032;13.790;2023-02-14T08:01:50;102367.81;;;7.08;67.62
76762;BME280;65705;51.032;13.790;2023-02-14T08:04:16;102373.84;;;7.08;67.76
76762;BME280;65705;51.032;13.790;2023-02-14T08:06:42;102375.38;;;7.12;67.28
76762;BME280;65705;51.032;13.790;2023-02-14T08:09:08;102369.94;;;7.17;67.68
76762;BME280;65705;51.032;13.790;2023-02-14T08:11:35;102368.72;;;7.22;66.93
76762;BME280;65705;51.032;13.790;2023-02-14T08:14:20;102365.22;;;7.23;66.48
76762;BME280;65705;51.032;13.790;2023-02-14T08:16:46;102370.72;;;7.34;66.90
76762;BME280;65705;51.032;13.790;2023-02-14T08:19:11;102372.63;;;7.31;65.94
76762;BME280;65705;51.032;13.790;2023-02-14T08:21:37;102373.81;;;7.25;65.81
76762;BME280;65705;51.032;13.790;2023-02-14T08:24:03;102374.66;;;7.26;66.16
76762;BME280;65705;51.032;13.790;2023-02-14T08:26:29;102382.31;;;7.29;66.24
76762;BME280;65705;51.032;13.790;2023-02-14T08:28:55;102386.28;;;7.36;65.36
76762;BME280;65705;51.032;13.790;2023-02-14T08:31:26;102377.44;;;7.38;65.23
76762;BME280;65705;51.032;13.790;2023-02-14T08:33:52;102386.13;;;7.39;65.19
76762;BME280;65705;51.032;13.790;2023-02-14T08:36:18;102382.81;;;7.35;65.13
76762;BME280;65705;51.032;13.790;2023-02-14T08:38:44;102394.09;;;7.20;65.38
76762;BME280;65705;51.032;13.790;2023-02-14T08:41:13;102392.56;;;7.16;65.58
76762;BME280;65705;51.032;13.790;2023-02-14T08:43:39;102390.34;;;7.26;66.13
76762;BME280;65705;51.032;13.790;2023-02-14T08:46:05;102382.75;;;7.37;65.10
76762;BME280;65705;51.032;13.790;2023-02-14T08:48:33;102387.47;;;7.30;65.66
76762;BME280;65705;51.032;13.790;2023-02-14T08:51:07;102384.84;;;7.30;65.29
76762;BME280;65705;51.032;13.790;2023-02-14T08:53:33;102386.88;;;7.25;65.63
76762;BME280;65705;51.032;13.790;2023-02-14T08:56:04;102371.19;;;7.25;65.36
76762;BME280;65705;51.032;13.790;2023-02-14T08:58:31;102386.78;;;7.27;65.77
76762;BME280;65705;51.032;13.790;2023-02-14T09:00:57;102390.94;;;7.31;65.89
76762;BME280;65705;51.032;13.790;2023-02-14T09:03:23;102384.09;;;7.44;65.29
76762;BME280;65705;51.032;13.790;2023-02-14T09:05:49;102385.69;;;7.31;65.34
76762;BME280;65705;51.032;13.790;2023-02-14T09:08:15;102386.28;;;7.20;65.51
76762;BME280;65705;51.032;13.790;2023-02-14T09:10:40;102383.81;;;7.17;65.82
76762;BME280;65705;51.032;13.790;2023-02-14T09:13:06;102382.13;;;7.16;66.38
76762;BME280;65705;51.032;13.790;2023-02-14T09:15:32;102391.41;;;7.22;66.15
76762;BME280;65705;51.032;13.790;2023-02-14T09:17:57;102393.53;;;7.31;66.13
76762;BME280;65705;51.032;13.790;2023-02-14T09:20:23;102394.03;;;7.37;65.80
76762;BME280;65705;51.032;13.790;2023-02-14T09:22:49;102398.94;;;7.43;65.43
76762;BME280;65705;51.032;13.790;2023-02-14T09:25:15;102398.00;;;7.44;64.82
76762;BME280;65705;51.032;13.790;2023-02-14T09:27:41;102390.88;;;7.15;65.47
76762;BME280;65705;51.032;13.790;2023-02-14T09:30:07;102390.53;;;7.06;66.09
76762;BME280;65705;51.032;13.790;2023-02-14T09:32:33;102397.22;;;7.11;66.64
76762;BME280;65705;51.032;13.790;2023-02-14T09:34:59;102397.63;;;7.19;66.50
76762;BME280;65705;51.032;13.790;2023-02-14T09:37:25;102394.69;;;7.25;66.94
76762;BME280;65705;51.032;13.790;2023-02-14T09:40:14;102397.91;;;7.30;66.49
76762;BME280;65705;51.032;13.790;2023-02-14T09:42:50;102401.69;;;7.40;66.62
76762;BME280;65705;51.032;13.790;2023-02-14T09:45:24;102398.09;;;7.43;66.43
76762;BME280;65705;51.032;13.790;2023-02-14T09:48:14;102397.31;;;7.41;65.91
76762;BME280;65705;51.032;13.790;2023-02-14T09:51:10;102400.78;;;7.41;66.00
76762;BME280;65705;51.032;13.790;2023-02-14T09:54:02;102400.72;;;7.43;66.19
76762;BME280;65705;51.032;13.790;2023-02-14T09:56:49;102405.63;;;7.49;65.96
76762;BME280;65705;51.032;13.790;2023-02-14T09:59:25;102403.81;;;7.49;65.59
76762;BME280;65705;51.032;13.790;2023-02-14T10:02:26;102393.72;;;7.43;65.82
76762;BME280;65705;51.032;13.790;2023-02-14T10:05:06;102399.03;;;7.42;66.38
76762;BME280;65705;51.032;13.790;2023-02-14T10:10:30;102399.44;;;7.50;65.93
76762;BME280;65705;51.032;13.790;2023-02-14T10:15:57;102394.97;;;7.52;66.15
76762;BME280;65705;51.032;13.790;2023-02-14T10:19:12;102397.34;;;7.57;66.22
76762;BME280;65705;51.032;13.790;2023-02-14T10:21:36;102393.91;;;7.56;66.16
76762;BME280;65705;51.032;13.790;2023-02-14T10:24:32;102391.09;;;7.59;65.95
76762;BME280;65705;51.032;13.790;2023-02-14T10:27:03;102396.16;;;7.62;65.21
76762;BME280;65705;51.032;13.790;2023-02-14T10:29:32;102389.16;;;7.63;65.95
76762;BME280;65705;51.032;13.790;2023-02-14T10:32:12;102387.66;;;7.74;65.88
76762;BME280;65705;51.032;13.790;2023-02-14T10:34:54;102392.22;;;7.71;65.70
76762;BME280;65705;51.032;13.790;2023-02-14T10:40:40;102392.22;;;7.71;65.74
76762;BME280;65705;51.032;13.790;2023-02-14T10:43:29;102394.84;;;7.71;65.77
76762;BME280;65705;51.032;13.790;2023-02-14T10:52:09;102383.09;;;7.78;65.43
76762;BME280;65705;51.032;13.790;2023-02-14T10:54:41;102384.97;;;7.76;65.67
76762;BME280;65705;51.032;13.790;2023-02-14T10:57:20;102389.09;;;7.80;65.42
76762;BME280;65705;51.032;13.790;2023-02-14T10:59:54;102389.44;;;7.74;65.37
76762;BME280;65705;51.032;13.790;2023-02-14T11:02:25;102380.31;;;7.81;65.33
76762;BME280;65705;51.032;13.790;2023-02-14T11:04:52;102395.41;;;7.76;65.33
76762;BME280;65705;51.032;13.790;2023-02-14T11:07:20;102387.31;;;7.80;65.52
76762;BME280;65705;51.032;13.790;2023-02-14T11:09:46;102386.22;;;7.84;64.81
76762;BME280;65705;51.032;13.790;2023-02-14T11:12:31;102385.72;;;7.78;65.18
76762;BME280;65705;51.032;13.790;2023-02-14T11:17:41;102379.03;;;7.88;64.41
76762;BME280;65705;51.032;13.790;2023-02-14T11:20:24;102374.81;;;7.85;64.57
76762;BME280;65705;51.032;13.790;2023-02-14T11:22:50;102370.44;;;7.86;64.57
76762;BME280;65705;51.032;13.790;2023-02-14T11:25:26;102372.16;;;7.87;64.75
76762;BME280;65705;51.032;13.790;2023-02-14T11:28:04;102365.88;;;7.89;64.64
76762;BME280;65705;51.032;13.790;2023-02-14T11:30:38;102369.78;;;7.82;64.64
76762;BME280;65705;51.032;13.790;2023-02-14T11:33:27;102372.66;;;7.78;64.72
76762;BME280;65705;51.032;13.790;2023-02-14T11:35:55;102370.88;;;7.94;64.23
76762;BME280;65705;51.032;13.790;2023-02-14T11:38:31;102366.56;;;7.77;64.33
76762;BME280;65705;51.032;13.790;2023-02-14T11:40:59;102359.16;;;7.70;64.21
76762;BME280;65705;51.032;13.790;2023-02-14T11:43:40;102354.09;;;7.67;64.63
76762;BME280;65705;51.032;13.790;2023-02-14T11:46:23;102361.88;;;7.53;64.73
76762;BME280;65705;51.032;13.790;2023-02-14T11:49:04;102361.69;;;7.56;64.88
76762;BME280;65705;51.032;13.790;2023-02-14T11:51:42;102362.34;;;7.75;64.81
76762;BME280;65705;51.032;13.790;2023-02-14T11:54:13;102357.78;;;7.78;64.68
76762;BME280;65705;51.032;13.790;2023-02-14T11:56:51;102352.66;;;7.77;64.65
76762;BME280;65705;51.032;13.790;2023-02-14T11:59:42;102351.97;;;7.73;64.63
76762;BME280;65705;51.032;13.790;2023-02-14T12:04:40;102343.81;;;7.79;64.37
76762;BME280;65705;51.032;13.790;2023-02-14T12:07:30;102340.59;;;7.90;64.51
76762;BME280;65705;51.032;13.790;2023-02-14T12:10:22;102331.66;;;7.94;64.58
76762;BME280;65705;51.032;13.790;2023-02-14T12:15:39;102332.94;;;7.87;64.75
76762;BME280;65705;51.032;13.790;2023-02-14T12:24:15;102315.00;;;7.95;63.60
76762;BME280;65705;51.032;13.790;2023-02-14T12:29:38;102310.25;;;8.01;62.78
76762;BME280;65705;51.032;13.790;2023-02-14T12:34:37;102309.59;;;7.98;62.90
76762;BME280;65705;51.032;13.790;2023-02-14T12:39:52;102300.66;;;7.72;62.80
76762;BME280;65705;51.032;13.790;2023-02-14T12:48:21;102291.16;;;7.85;62.62
76762;BME280;65705;51.032;13.790;2023-02-14T12:50:56;102284.69;;;7.92;62.58
76762;BME280;65705;51.032;13.790;2023-02-14T12:53:38;102279.63;;;8.03;62.10
76762;BME280;65705;51.032;13.790;2023-02-14T13:07:00;102275.13;;;8.21;61.95
76762;BME280;65705;51.032;13.790;2023-02-14T13:14:54;102255.28;;;8.03;61.48
76762;BME280;65705;51.032;13.790;2023-02-14T13:17:31;102260.31;;;8.06;61.63
76762;BME280;65705;51.032;13.790;2023-02-14T13:22:45;102255.16;;;7.90;61.87
76762;BME280;65705;51.032;13.790;2023-02-14T13:25:27;102256.16;;;7.88;61.68
76762;BME280;65705;51.032;13.790;2023-02-14T13:28:00;102252.72;;;7.87;61.88
76762;BME280;65705;51.032;13.790;2023-02-14T13:30:29;102244.31;;;7.96;62.22
76762;BME280;65705;51.032;13.790;2023-02-14T13:33:02;102244.72;;;7.90;62.08
76762;BME280;65705;51.032;13.790;2023-02-14T13:35:30;102244.53;;;7.93;62.59
76762;BME280;65705;51.032;13.790;2023-02-14T13:38:04;102243.22;;;8.00;62.50
76762;BME280;65705;51.032;13.790;2023-02-14T13:40:31;102243.03;;;8.03;62.74
76762;BME280;65705;51.032;13.790;2023-02-14T13:43:00;102241.69;;;8.12;62.28
76762;BME280;65705;51.032;13.790;2023-02-14T13:53:30;102235.75;;;8.24;62.91
76762;BME280;65705;51.032;13.790;2023-02-14T13:55:56;102234.53;;;8.29;62.40
76762;BME280;65705;51.032;13.790;2023-02-14T13:58:22;102227.00;;;8.23;62.51
76762;BME280;65705;51.032;13.790;2023-02-14T14:00:51;102224.88;;;8.30;62.49
76762;BME280;65705;51.032;13.790;2023-02-14T14:05:57;102232.06;;;8.26;62.50
76762;BME280;65705;51.032;13.790;2023-02-14T14:21:36;102214.72;;;8.25;62.37
76762;BME280;65705;51.032;13.790;2023-02-14T14:24:22;102212.19;;;8.24;62.10
76762;BME280;65705;51.032;13.790;2023-02-14T14:27:15;102210.56;;;8.21;62.46
76762;BME280;65705;51.032;13.790;2023-02-14T14:29:46;102208.34;;;8.15;63.32
76762;BME280;65705;51.032;13.790;2023-02-14T14:32:19;102205.88;;;8.12;62.92
76762;BME280;65705;51.032;13.790;2023-02-14T14:34:54;102198.53;;;8.19;62.64
76762;BME280;65705;51.032;13.790;2023-02-14T14:37:23;102192.16;;;8.09;62.80
76762;BME280;65705;51.032;13.790;2023-02-14T14:39:55;102201.41;;;8.14;62.89
76762;BME280;65705;51.032;13.790;2023-02-14T14:42:23;102196.56;;;8.22;62.98
76762;BME280;65705;51.032;13.790;2023-02-14T14:44:52;102198.88;;;8.13;63.00
76762;BME280;65705;51.032;13.790;2023-02-14T14:47:25;102187.97;;;8.06;63.26
76762;BME280;65705;51.032;13.790;2023-02-14T14:49:58;102190.47;;;8.08;63.35
76762;BME280;65705;51.032;13.790;2023-02-14T14:52:35;102183.19;;;8.13;63.12
76762;BME280;65705;51.032;13.790;2023-02-14T14:55:05;102181.22;;;8.16;63.05
76762;BME280;65705;51.032;13.790;2023-02-14T14:57:38;102180.03;;;8.22;62.92
76762;BME280;65705;51.032;13.790;2023-02-14T15:00:25;102172.06;;;8.09;63.29
76762;BME280;65705;51.032;13.790;2023-02-14T15:03:13;102181.69;;;8.09;63.45
76762;BME280;65705;51.032;13.790;2023-02-14T15:05:50;102175.53;;;7.96;64.22
76762;BME280;65705;51.032;13.790;2023-02-14T15:08:19;102169.06;;;7.87;63.90
76762;BME280;65705;51.032;13.790;2023-02-14T15:10:52;102162.91;;;7.88;64.14
76762;BME280;65705;51.032;13.790;2023-02-14T15:13:26;102163.06;;;7.85;64.40
76762;BME280;65705;51.032;13.790;2023-02-14T15:16:24;102160.28;;;7.74;65.08
76762;BME280;65705;51.032;13.790;2023-02-14T15:18:54;102160.16;;;7.62;65.22
76762;BME280;65705;51.032;13.790;2023-02-14T15:21:20;102159.03;;;7.66;65.19
76762;BME280;65705;51.032;13.790;2023-02-14T15:23:46;102153.91;;;7.34;66.11
76762;BME280;65705;51.032;13.790;2023-02-14T15:26:16;102148.31;;;7.40;65.99